sensor_id;sensor_type;location;lat;lon;timestamp;pressure;altitude;pressure_sealevel;temperature;humidity
55068;BME280;40965;52.368;9.712;2023-04-25T00:01:15;99969.25;;;6.11;100.00
55068;BME280;40965;52.368;9.712;2023-04-25T00:03:42;99964.91;;;6.10;100.00
55068;BME280;40965;52.368;9.712;2023-04-25T00:06:08;99963.19;;;6.12;100.00
55068;BME280;40965;52.368;9.712;2023-04-25T00:08:35;99958.84;;;6.16;100.00
55068;BME280;40965;52.368;9.712;2023-04-25T00:11:01;99957.09;;;6.21;100.00
55068;BME280;40965;52.368;9.712;2023-04-25T00:13:28;99963.16;;;6.27;100.00
55068;BME280;40965;52.368;9.712;2023-04-25T00:15:54;99952.72;;;6.32;100.00
55068;BME280;40965;52.368;9.712;2023-04-25T00:18:22;99959.66;;;6.35;100.00
55068;BME280;40965;52.368;9.712;2023-04-25T00:20:48;99964.00;;;6.29;100.00
55068;BME280;40965;52.368;9.712;2023-04-25T00:23:18;99961.41;;;6.28;100.00
55068;BME280;40965;52.368;9.712;2023-04-25T00:25:45;99964.00;;;6.28;100.00
55068;BME280;40965;52.368;9.712;2023-04-25T00:28:12;99965.72;;;6.38;100.00
55068;BME280;40965;52.368;9.712;2023-04-25T00:30:40;99964.00;;;6.39;100.00
55068;BME280;40965;52.368;9.712;2023-04-25T00:33:07;99961.41;;;6.39;100.00
55068;BME280;40965;52.368;9.712;2023-04-25T00:35:34;99964.84;;;6.39;100.00
55068;BME280;40965;52.368;9.712;2023-04-25T00:38:01;99959.63;;;6.41;100.00
55068;BME280;40965;52.368;9.712;2023-04-25T00:40:28;99963.13;;;6.41;100.00
55068;BME280;40965;52.368;9.712;2023-04-25T00:42:54;99967.44;;;6.39;100.00
55068;BME280;40965;52.368;9.712;2023-04-25T00:45:21;99960.50;;;6.38;100.00
55068;BME280;40965;52.368;9.712;2023-04-25T00:47:47;99966.59;;;6.39;100.00
55068;BME280;40965;52.368;9.712;2023-04-25T00:50:14;99962.25;;;6.41;100.00
55068;BME280;40965;52.368;9.712;2023-04-25T00:52:43;99955.28;;;6.46;100.00
55068;BME280;40965;52.368;9.712;2023-04-25T00:55:11;99961.38;;;6.43;100.00
55068;BME280;40965;52.368;9.712;2023-04-25T00:57:38;99962.22;;;6.42;100.00
55068;BME280;40965;52.368;9.712;2023-04-25T01:00:06;99963.97;;;6.42;100.00
55068;BME280;40965;52.368;9.712;2023-04-25T01:02:35;99953.56;;;6.42;100.00
55068;BME280;40965;52.368;9.712;2023-04-25T01:05:03;99957.88;;;6.48;100.00
55068;BME280;40965;52.368;9.712;2023-04-25T01:07:29;99953.56;;;6.43;100.00
55068;BME280;40965;52.368;9.712;2023-04-25T01:09:56;99957.91;;;6.37;100.00
55068;BME280;40965;52.368;9.712;2023-04-25T01:12:23;99953.59;;;6.29;100.00
55068;BME280;40965;52.368;9.712;2023-04-25T01:14:50;99959.69;;;6.30;100.00
55068;BME280;40965;52.368;9.712;2023-04-25T01:17:18;99954.47;;;6.33;100.00
55068;BME280;40965;52.368;9.712;2023-04-25T01:19:45;99956.19;;;6.36;100.00
55068;BME280;40965;52.368;9.712;2023-04-25T01:22:13;99954.47;;;6.36;100.00
55068;BME280;40965;52.368;9.712;2023-04-25T01:24:40;99944.91;;;6.38;100.00
55068;BME280;40965;52.368;9.712;2023-04-25T01:27:08;99949.25;;;6.35;100.00
55068;BME280;40965;52.368;9.712;2023-04-25T01:29:36;99952.75;;;6.34;100.00
55068;BME280;40965;52.368;9.712;2023-04-25T01:32:03;99949.25;;;6.35;100.00
55068;BME280;40965;52.368;9.712;2023-04-25T01:34:30;99944.06;;;6.36;100.00
55068;BME280;40965;52.368;9.712;2023-04-25T01:36:59;99944.94;;;6.37;100.00
55068;BME280;40965;52.368;9.712;2023-04-25T01:39:27;99946.66;;;6.39;100.00
55068;BME280;40965;52.368;9.712;2023-04-25T01:41:54;99945.78;;;6.36;100.00
55068;BME280;40965;52.368;9.712;2023-04-25T01:44:21;99947.53;;;6.37;100.00
55068;BME280;40965;52.368;9.712;2023-04-25T01:46:47;99941.47;;;6.32;100.00
55068;BME280;40965;52.368;9.712;2023-04-25T01:49:14;99949.28;;;6.36;100.00
55068;BME280;40965;52.368;9.712;2023-04-25T01:51:40;99956.22;;;6.33;100.00
55068;BME280;40965;52.368;9.712;2023-04-25T01:54:08;99952.75;;;6.34;100.00
55068;BME280;40965;52.368;9.712;2023-04-25T01:56:37;99957.94;;;6.35;100.00
55068;BME280;40965;52.368;9.712;2023-04-25T01:59:05;99961.38;;;6.36;100.00
55068;BME280;40965;52.368;9.712;2023-04-25T02:01:32;99963.16;;;6.34;100.00
55068;BME280;40965;52.368;9.712;2023-04-25T02:03:58;99965.72;;;6.35;100.00
55068;BME280;40965;52.368;9.712;2023-04-25T02:06:25;99971.81;;;6.31;100.00
55068;BME280;40965;52.368;9.712;2023-04-25T02:08:51;99976.13;;;6.31;100.00
55068;BME280;40965;52.368;9.712;2023-04-25T02:11:18;99982.19;;;6.29;100.00
55068;BME280;40965;52.368;9.712;2023-04-25T02:13:44;99975.28;;;6.28;100.00
55068;BME280;40965;52.368;9.712;2023-04-25T02:16:11;99984.78;;;6.29;100.00
55068;BME280;40965;52.368;9.712;2023-04-25T02:18:38;99984.81;;;6.17;100.00
55068;BME280;40965;52.368;9.712;2023-04-25T02:21:04;99994.34;;;6.07;100.00
55068;BME280;40965;52.368;9.712;2023-04-25T02:23:32;99995.19;;;5.95;100.00
55068;BME280;40965;52.368;9.712;2023-04-25T02:25:59;99998.66;;;5.91;100.00
55068;BME280;40965;52.368;9.712;2023-04-25T02:28:26;100007.31;;;5.90;100.00
55068;BME280;40965;52.368;9.712;2023-04-25T02:30:52;100000.41;;;5.88;100.00
55068;BME280;40965;52.368;9.712;2023-04-25T02:33:19;100016.00;;;5.91;100.00
55068;BME280;40965;52.368;9.712;2023-04-25T02:35:46;100008.19;;;5.92;100.00
55068;BME280;40965;52.368;9.712;2023-04-25T02:38:13;100020.34;;;5.93;100.00
55068;BME280;40965;52.368;9.712;2023-04-25T02:40:39;100025.53;;;5.95;100.00
55068;BME280;40965;52.368;9.712;2023-04-25T02:43:06;100024.66;;;5.96;100.00
55068;BME280;40965;52.368;9.712;2023-04-25T02:45:33;100025.53;;;5.98;100.00
55068;BME280;40965;52.368;9.712;2023-04-25T02:48:00;100018.63;;;5.99;100.00
55068;BME280;40965;52.368;9.712;2023-04-25T02:50:26;100019.50;;;5.99;100.00
55068;BME280;40965;52.368;9.712;2023-04-25T02:52:53;100018.63;;;6.00;100.00
55068;BME280;40965;52.368;9.712;2023-04-25T02:55:19;100026.41;;;6.03;100.00
55068;BME280;40965;52.368;9.712;2023-04-25T02:57:47;100018.59;;;6.05;100.00
55068;BME280;40965;52.368;9.712;2023-04-25T03:00:14;100015.16;;;6.03;100.00
55068;BME280;40965;52.368;9.712;2023-04-25T03:02:40;100020.34;;;5.98;100.00
55068;BME280;40965;52.368;9.712;2023-04-25T03:05:07;100022.94;;;6.00;100.00
55068;BME280;40965;52.368;9.712;2023-04-25T03:07:33;100016.88;;;5.96;100.00
55068;BME280;40965;52.368;9.712;2023-04-25T03:10:00;100028.97;;;5.94;100.00
55068;BME280;40965;52.368;9.712;2023-04-25T03:12:27;100028.13;;;5.93;100.00
55068;BME280;40965;52.368;9.712;2023-04-25T03:14:53;100029.84;;;5.93;100.00
55068;BME280;40965;52.368;9.712;2023-04-25T03:17:20;100030.72;;;5.89;100.00
55068;BME280;40965;52.368;9.712;2023-04-25T03:19:46;100026.41;;;5.91;100.00
55068;BME280;40965;52.368;9.712;2023-04-25T03:22:13;100025.50;;;5.89;100.00
55068;BME280;40965;52.368;9.712;2023-04-25T03:24:40;100030.72;;;5.86;100.00
55068;BME280;40965;52.368;9.712;2023-04-25T03:27:06;100029.84;;;5.84;100.00
55068;BME280;40965;52.368;9.712;2023-04-25T03:29:33;100039.38;;;5.85;100.00
55068;BME280;40965;52.368;9.712;2023-04-25T03:31:59;100044.56;;;5.86;100.00
55068;BME280;40965;52.368;9.712;2023-04-25T03:34:26;100048.91;;;5.86;100.00
55068;BME280;40965;52.368;9.712;2023-04-25T03:36:53;100055.84;;;5.88;100.00
55068;BME280;40965;52.368;9.712;2023-04-25T03:39:20;100062.75;;;5.88;100.00
55068;BME280;40965;52.368;9.712;2023-04-25T03:41:47;100056.69;;;5.87;100.00
55068;BME280;40965;52.368;9.712;2023-04-25T03:44:14;100064.47;;;5.83;100.00
55068;BME280;40965;52.368;9.712;2023-04-25T03:46:40;100071.41;;;5.80;100.00
55068;BME280;40965;52.368;9.712;2023-04-25T03:49:07;100067.94;;;5.77;100.00
55068;BME280;40965;52.368;9.712;2023-04-25T03:51:33;100078.34;;;5.72;100.00
55068;BME280;40965;52.368;9.712;2023-04-25T03:54:00;100075.72;;;5.71;100.00
55068;BME280;40965;52.368;9.712;2023-04-25T03:56:26;100073.13;;;5.66;100.00
55068;BME280;40965;52.368;9.712;2023-04-25T03:58:53;100079.19;;;5.63;100.00
55068;BME280;40965;52.368;9.712;2023-04-25T04:01:19;100079.16;;;5.60;100.00
55068;BME280;40965;52.368;9.712;2023-04-25T04:03:46;100080.03;;;5.59;100.00
55068;BME280;40965;52.368;9.712;2023-04-25T04:06:12;100072.22;;;5.56;100.00
55068;BME280;40965;52.368;9.712;2023-04-25T04:08:40;100078.28;;;5.55;100.00
55068;BME280;40965;52.368;9.712;2023-04-25T04:11:06;100083.50;;;5.58;100.00
55068;BME280;40965;52.368;9.712;2023-04-25T04:13:33;100073.09;;;5.58;100.00
55068;BME280;40965;52.368;9.712;2023-04-25T04:15:59;100075.69;;;5.60;100.00
55068;BME280;40965;52.368;9.712;2023-04-25T04:18:26;100080.88;;;5.60;100.00
55068;BME280;40965;52.368;9.712;2023-04-25T04:20:52;100083.47;;;5.63;100.00
55068;BME280;40965;52.368;9.712;2023-04-25T04:23:19;100086.09;;;5.66;100.00
55068;BME280;40965;52.368;9.712;2023-04-25T04:25:47;100093.03;;;5.69;100.00
55068;BME280;40965;52.368;9.712;2023-04-25T04:28:14;100091.28;;;5.71;100.00
55068;BME280;40965;52.368;9.712;2023-04-25T04:30:41;100093.91;;;5.74;100.00
55068;BME280;40965;52.368;9.712;2023-04-25T04:33:12;100096.50;;;5.75;100.00
55068;BME280;40965;52.368;9.712;2023-04-25T04:35:40;100099.97;;;5.73;100.00
55068;BME280;40965;52.368;9.712;2023-04-25T04:38:08;100099.97;;;5.71;100.00
55068;BME280;40965;52.368;9.712;2023-04-25T04:40:38;100110.34;;;5.73;100.00
55068;BME280;40965;52.368;9.712;2023-04-25T04:43:04;100112.09;;;5.74;100.00
55068;BME280;40965;52.368;9.712;2023-04-25T04:45:31;100109.50;;;5.77;100.00
55068;BME280;40965;52.368;9.712;2023-04-25T04:47:58;100119.03;;;5.79;100.00
55068;BME280;40965;52.368;9.712;2023-04-25T04:50:25;100114.72;;;5.82;100.00
55068;BME280;40965;52.368;9.712;2023-04-25T04:52:52;100118.16;;;5.82;100.00
55068;BME280;40965;52.368;9.712;2023-04-25T04:55:20;100123.34;;;5.79;99.66
55068;BME280;40965;52.368;9.712;2023-04-25T04:57:46;100122.47;;;5.77;100.00
55068;BME280;40965;52.368;9.712;2023-04-25T05:00:15;100130.28;;;5.75;100.00
55068;BME280;40965;52.368;9.712;2023-04-25T05:02:43;100131.13;;;5.74;100.00
55068;BME280;40965;52.368;9.712;2023-04-25T05:05:09;100139.78;;;5.72;100.00
55068;BME280;40965;52.368;9.712;2023-04-25T05:07:36;100138.03;;;5.69;100.00
55068;BME280;40965;52.368;9.712;2023-04-25T05:10:03;100137.19;;;5.67;100.00
55068;BME280;40965;52.368;9.712;2023-04-25T05:12:30;100146.69;;;5.68;100.00
55068;BME280;40965;52.368;9.712;2023-04-25T05:14:56;100147.53;;;5.66;100.00
55068;BME280;40965;52.368;9.712;2023-04-25T05:17:23;100145.81;;;5.61;100.00
55068;BME280;40965;52.368;9.712;2023-04-25T05:19:52;100148.38;;;5.55;100.00
55068;BME280;40965;52.368;9.712;2023-04-25T05:22:19;100153.56;;;5.52;100.00
55068;BME280;40965;52.368;9.712;2023-04-25T05:24:45;100156.16;;;5.52;100.00
55068;BME280;40965;52.368;9.712;2023-04-25T05:27:16;100155.31;;;5.53;100.00
55068;BME280;40965;52.368;9.712;2023-04-25T05:29:44;100157.94;;;5.61;100.00
55068;BME280;40965;52.368;9.712;2023-04-25T05:32:10;100164.88;;;5.76;100.00
55068;BME280;40965;52.368;9.712;2023-04-25T05:34:37;100170.13;;;5.87;99.00
55068;BME280;40965;52.368;9.712;2023-04-25T05:37:03;100170.19;;;5.99;97.14
55068;BME280;40965;52.368;9.712;2023-04-25T05:39:30;100173.66;;;6.15;95.50
55068;BME280;40965;52.368;9.712;2023-04-25T05:41:57;100174.56;;;6.23;94.29
55068;BME280;40965;52.368;9.712;2023-04-25T05:44:23;100181.47;;;6.32;93.69
55068;BME280;40965;52.368;9.712;2023-04-25T05:46:50;100180.63;;;6.41;92.85
55068;BME280;40965;52.368;9.712;2023-04-25T05:49:16;100192.78;;;6.50;92.52
55068;BME280;40965;52.368;9.712;2023-04-25T05:51:43;100191.03;;;6.56;91.25
55068;BME280;40965;52.368;9.712;2023-04-25T05:54:09;100187.56;;;6.57;90.02
55068;BME280;40965;52.368;9.712;2023-04-25T05:56:36;100197.13;;;6.58;89.77
55068;BME280;40965;52.368;9.712;2023-04-25T05:59:02;100200.59;;;6.64;88.71
55068;BME280;40965;52.368;9.712;2023-04-25T06:01:31;100204.91;;;6.69;88.36
55068;BME280;40965;52.368;9.712;2023-04-25T06:04:01;100205.75;;;6.70;86.79
55068;BME280;40965;52.368;9.712;2023-04-25T06:06:28;100212.69;;;6.71;87.68
55068;BME280;40965;52.368;9.712;2023-04-25T06:08:55;100217.03;;;6.81;86.48
55068;BME280;40965;52.368;9.712;2023-04-25T06:11:21;100220.50;;;6.88;86.78
55068;BME280;40965;52.368;9.712;2023-04-25T06:13:48;100218.78;;;6.88;86.54
55068;BME280;40965;52.368;9.712;2023-04-25T06:16:14;100219.63;;;6.97;86.44
55068;BME280;40965;52.368;9.712;2023-04-25T06:18:41;100222.25;;;7.03;86.32
55068;BME280;40965;52.368;9.712;2023-04-25T06:21:08;100222.22;;;7.00;86.21
55068;BME280;40965;52.368;9.712;2023-04-25T06:23:34;100223.97;;;6.93;86.27
55068;BME280;40965;52.368;9.712;2023-04-25T06:26:01;100231.78;;;6.93;86.15
55068;BME280;40965;52.368;9.712;2023-04-25T06:28:28;100223.09;;;6.95;85.62
55068;BME280;40965;52.368;9.712;2023-04-25T06:30:55;100230.91;;;6.92;84.28
55068;BME280;40965;52.368;9.712;2023-04-25T06:33:21;100235.25;;;6.89;84.16
55068;BME280;40965;52.368;9.712;2023-04-25T06:35:49;100230.03;;;6.89;84.32
55068;BME280;40965;52.368;9.712;2023-04-25T06:38:15;100233.50;;;6.97;84.68
55068;BME280;40965;52.368;9.712;2023-04-25T06:40:42;100236.97;;;7.07;83.86
55068;BME280;40965;52.368;9.712;2023-04-25T06:43:09;100227.44;;;7.04;82.87
55068;BME280;40965;52.368;9.712;2023-04-25T06:45:35;100230.91;;;7.09;83.16
55068;BME280;40965;52.368;9.712;2023-04-25T06:48:02;100223.94;;;7.16;82.49
55068;BME280;40965;52.368;9.712;2023-04-25T06:50:29;100235.22;;;7.17;81.68
55068;BME280;40965;52.368;9.712;2023-04-25T06:52:56;100230.88;;;7.14;81.61
55068;BME280;40965;52.368;9.712;2023-04-25T06:55:23;100236.09;;;7.12;81.35
55068;BME280;40965;52.368;9.712;2023-04-25T06:57:50;100234.34;;;7.25;82.10
55068;BME280;40965;52.368;9.712;2023-04-25T07:00:17;100237.78;;;7.44;80.35
55068;BME280;40965;52.368;9.712;2023-04-25T07:02:43;100245.50;;;7.65;79.45
55068;BME280;40965;52.368;9.712;2023-04-25T07:05:10;100247.22;;;7.75;78.34
55068;BME280;40965;52.368;9.712;2023-04-25T07:07:37;100241.91;;;7.97;77.47
55068;BME280;40965;52.368;9.712;2023-04-25T07:10:03;100241.88;;;8.01;77.23
55068;BME280;40965;52.368;9.712;2023-04-25T07:12:31;100245.38;;;7.92;76.84
55068;BME280;40965;52.368;9.712;2023-04-25T07:14:57;100255.88;;;7.78;75.57
55068;BME280;40965;52.368;9.712;2023-04-25T07:17:24;100248.09;;;7.66;75.95
55068;BME280;40965;52.368;9.712;2023-04-25T07:19:50;100256.81;;;7.67;74.79
55068;BME280;40965;52.368;9.712;2023-04-25T07:22:17;100258.53;;;7.69;75.19
55068;BME280;40965;52.368;9.712;2023-04-25T07:24:43;100250.72;;;7.66;75.90
55068;BME280;40965;52.368;9.712;2023-04-25T07:27:13;100260.28;;;7.66;76.19
55068;BME280;40965;52.368;9.712;2023-04-25T07:29:43;100264.56;;;7.73;74.85
55068;BME280;40965;52.368;9.712;2023-04-25T07:32:10;100266.28;;;7.86;75.11
55068;BME280;40965;52.368;9.712;2023-04-25T07:34:37;100264.44;;;8.05;74.72
55068;BME280;40965;52.368;9.712;2023-04-25T07:37:04;100266.13;;;8.14;73.38
55068;BME280;40965;52.368;9.712;2023-04-25T07:39:31;100275.69;;;8.17;72.50
55068;BME280;40965;52.368;9.712;2023-04-25T07:41:57;100282.63;;;8.21;72.76
55068;BME280;40965;52.368;9.712;2023-04-25T07:44:25;100266.09;;;8.22;72.63
55068;BME280;40965;52.368;9.712;2023-04-25T07:46:52;100276.50;;;8.28;72.05
55068;BME280;40965;52.368;9.712;2023-04-25T07:49:18;100274.72;;;8.36;71.35
55068;BME280;40965;52.368;9.712;2023-04-25T07:51:45;100280.75;;;8.43;69.02
55068;BME280;40965;52.368;9.712;2023-04-25T07:54:14;100285.13;;;8.39;69.39
55068;BME280;40965;52.368;9.712;2023-04-25T07:56:41;100288.56;;;8.43;69.28
55068;BME280;40965;52.368;9.712;2023-04-25T07:59:07;100294.66;;;8.50;69.32
55068;BME280;40965;52.368;9.712;2023-04-25T08:01:34;100294.56;;;8.64;69.56
55068;BME280;40965;52.368;9.712;2023-04-25T08:04:00;100284.03;;;8.76;67.76
55068;BME280;40965;52.368;9.712;2023-04-25T08:06:27;100291.00;;;8.80;67.52
55068;BME280;40965;52.368;9.712;2023-04-25T08:08:54;100290.91;;;8.91;66.61
55068;BME280;40965;52.368;9.712;2023-04-25T08:11:20;100304.72;;;9.04;65.90
55068;BME280;40965;52.368;9.712;2023-04-25T08:13:47;100296.88;;;9.05;64.37
55068;BME280;40965;52.368;9.712;2023-04-25T08:16:13;100297.81;;;8.97;64.17
55068;BME280;40965;52.368;9.712;2023-04-25T08:18:40;100297.81;;;9.87;63.69
55068;BME280;40965;52.368;9.712;2023-04-25T08:21:07;100303.56;;;10.79;61.42
55068;BME280;40965;52.368;9.712;2023-04-25T08:23:36;100299.22;;;11.78;58.07
55068;BME280;40965;52.368;9.712;2023-04-25T08:26:03;100295.38;;;11.96;52.63
55068;BME280;40965;52.368;9.712;2023-04-25T08:28:30;100307.91;;;11.33;51.60
55068;BME280;40965;52.368;9.712;2023-04-25T08:30:56;100308.75;;;11.82;50.29
55068;BME280;40965;52.368;9.712;2023-04-25T08:33:23;100310.75;;;12.15;48.71
55068;BME280;40965;52.368;9.712;2023-04-25T08:35:50;100304.00;;;12.45;48.59
55068;BME280;40965;52.368;9.712;2023-04-25T08:38:17;100311.75;;;11.62;47.01
55068;BME280;40965;52.368;9.712;2023-04-25T08:40:49;100310.47;;;11.83;47.29
55068;BME280;40965;52.368;9.712;2023-04-25T08:43:18;100312.06;;;12.34;45.87
55068;BME280;40965;52.368;9.712;2023-04-25T08:45:46;100313.97;;;13.40;42.55
55068;BME280;40965;52.368;9.712;2023-04-25T08:48:14;100304.53;;;14.58;42.28
55068;BME280;40965;52.368;9.712;2023-04-25T08:50:49;100312.69;;;14.48;40.57
55068;BME280;40965;52.368;9.712;2023-04-25T08:53:22;100313.53;;;12.87;41.81
55068;BME280;40965;52.368;9.712;2023-04-25T08:55:54;100329.31;;;12.05;44.35
55068;BME280;40965;52.368;9.712;2023-04-25T08:58:21;100332.88;;;11.54;45.37
55068;BME280;40965;52.368;9.712;2023-04-25T09:00:49;100332.34;;;10.79;47.23
55068;BME280;40965;52.368;9.712;2023-04-25T09:03:18;100343.44;;;10.36;48.37
55068;BME280;40965;52.368;9.712;2023-04-25T09:05:45;100346.22;;;10.19;48.66
55068;BME280;40965;52.368;9.712;2023-04-25T09:08:11;100354.94;;;10.18;48.93
55068;BME280;40965;52.368;9.712;2023-04-25T09:10:38;100348.59;;;10.42;47.98
55068;BME280;40965;52.368;9.712;2023-04-25T09:13:11;100355.38;;;10.55;48.19
55068;BME280;40965;52.368;9.712;2023-04-25T09:15:51;100367.59;;;11.14;46.93
55068;BME280;40965;52.368;9.712;2023-04-25T09:18:32;100353.94;;;11.97;42.72
55068;BME280;40965;52.368;9.712;2023-04-25T09:21:09;100368.34;;;13.01;38.45
55068;BME280;40965;52.368;9.712;2023-04-25T09:23:47;100357.69;;;14.11;36.35
55068;BME280;40965;52.368;9.712;2023-04-25T09:26:19;100362.91;;;15.00;34.11
55068;BME280;40965;52.368;9.712;2023-04-25T09:28:46;100368.28;;;15.78;33.35
55068;BME280;40965;52.368;9.712;2023-04-25T09:31:22;100355.44;;;16.87;33.24
55068;BME280;40965;52.368;9.712;2023-04-25T09:33:49;100364.16;;;17.33;31.70
55068;BME280;40965;52.368;9.712;2023-04-25T09:36:16;100362.19;;;17.59;30.78
55068;BME280;40965;52.368;9.712;2023-04-25T09:38:46;100369.22;;;17.81;29.45
55068;BME280;40965;52.368;9.712;2023-04-25T09:41:22;100358.81;;;18.37;29.92
55068;BME280;40965;52.368;9.712;2023-04-25T09:43:50;100368.25;;;18.80;29.38
55068;BME280;40965;52.368;9.712;2023-04-25T09:46:17;100367.19;;;18.84;28.78
55068;BME280;40965;52.368;9.712;2023-04-25T09:48:50;100364.28;;;19.08;28.10
55068;BME280;40965;52.368;9.712;2023-04-25T09:51:20;100372.25;;;19.08;28.33
55068;BME280;40965;52.368;9.712;2023-04-25T09:53:51;100378.81;;;19.18;27.30
55068;BME280;40965;52.368;9.712;2023-04-25T09:56:19;100380.41;;;18.08;27.82
55068;BME280;40965;52.368;9.712;2023-04-25T09:58:46;100368.94;;;17.46;29.75
55068;BME280;40965;52.368;9.712;2023-04-25T10:01:13;100372.53;;;17.65;29.04
55068;BME280;40965;52.368;9.712;2023-04-25T10:03:47;100363.31;;;18.73;28.16
55068;BME280;40965;52.368;9.712;2023-04-25T10:06:19;100373.72;;;17.99;29.47
55068;BME280;40965;52.368;9.712;2023-04-25T10:08:47;100378.22;;;16.20;31.76
55068;BME280;40965;52.368;9.712;2023-04-25T10:11:16;100384.50;;;14.25;33.89
55068;BME280;40965;52.368;9.712;2023-04-25T10:13:44;100397.09;;;13.46;35.53
55068;BME280;40965;52.368;9.712;2023-04-25T10:16:12;100405.53;;;12.84;36.82
55068;BME280;40965;52.368;9.712;2023-04-25T10:18:39;100405.63;;;12.38;38.08
55068;BME280;40965;52.368;9.712;2023-04-25T10:21:06;100416.25;;;11.82;39.26
55068;BME280;40965;52.368;9.712;2023-04-25T10:23:33;100417.69;;;11.50;40.46
55068;BME280;40965;52.368;9.712;2023-04-25T10:26:01;100425.28;;;11.13;41.77
55068;BME280;40965;52.368;9.712;2023-04-25T10:28:28;100429.88;;;10.97;41.77
55068;BME280;40965;52.368;9.712;2023-04-25T10:31:06;100428.53;;;10.65;42.62
55068;BME280;40965;52.368;9.712;2023-04-25T10:33:38;100425.28;;;10.47;44.22
55068;BME280;40965;52.368;9.712;2023-04-25T10:36:22;100435.94;;;10.27;44.78
55068;BME280;40965;52.368;9.712;2023-04-25T10:38:50;100438.63;;;10.22;45.38
55068;BME280;40965;52.368;9.712;2023-04-25T10:41:20;100430.31;;;10.64;44.83
55068;BME280;40965;52.368;9.712;2023-04-25T10:43:49;100432.81;;;11.33;44.11
55068;BME280;40965;52.368;9.712;2023-04-25T10:46:22;100435.41;;;11.87;42.60
55068;BME280;40965;52.368;9.712;2023-04-25T10:49:01;100437.72;;;12.07;41.22
55068;BME280;40965;52.368;9.712;2023-04-25T10:51:32;100433.78;;;12.30;41.11
55068;BME280;40965;52.368;9.712;2023-04-25T10:54:05;100436.66;;;12.18;40.84
55068;BME280;40965;52.368;9.712;2023-04-25T10:56:36;100430.59;;;12.14;41.08
55068;BME280;40965;52.368;9.712;2023-04-25T10:59:15;100435.50;;;11.83;41.78
55068;BME280;40965;52.368;9.712;2023-04-25T11:01:51;100433.31;;;11.58;42.21
55068;BME280;40965;52.368;9.712;2023-04-25T11:04:30;100437.41;;;11.20;41.75
55068;BME280;40965;52.368;9.712;2023-04-25T11:07:19;100438.66;;;10.94;42.59
55068;BME280;40965;52.368;9.712;2023-04-25T11:09:55;100438.22;;;12.27;40.93
55068;BME280;40965;52.368;9.712;2023-04-25T11:12:24;100427.06;;;15.01;36.98
55068;BME280;40965;52.368;9.712;2023-04-25T11:14:58;100427.19;;;17.24;33.50
55068;BME280;40965;52.368;9.712;2023-04-25T11:17:29;100419.97;;;18.91;31.01
55068;BME280;40965;52.368;9.712;2023-04-25T11:19:56;100427.69;;;19.69;29.07
55068;BME280;40965;52.368;9.712;2023-04-25T11:22:23;100427.13;;;19.08;29.75
55068;BME280;40965;52.368;9.712;2023-04-25T11:24:49;100424.06;;;17.57;31.22
55068;BME280;40965;52.368;9.712;2023-04-25T11:27:16;100434.59;;;16.19;33.64
55068;BME280;40965;52.368;9.712;2023-04-25T11:29:46;100438.41;;;14.43;35.74
55068;BME280;40965;52.368;9.712;2023-04-25T11:32:15;100433.56;;;13.22;38.19
55068;BME280;40965;52.368;9.712;2023-04-25T11:34:43;100448.59;;;12.33;40.45
55068;BME280;40965;52.368;9.712;2023-04-25T11:37:11;100461.94;;;11.70;42.05
55068;BME280;40965;52.368;9.712;2023-04-25T11:39:39;100465.72;;;10.93;43.25
55068;BME280;40965;52.368;9.712;2023-04-25T11:42:09;100479.34;;;10.50;45.04
55068;BME280;40965;52.368;9.712;2023-04-25T11:44:39;100487.53;;;10.16;46.71
55068;BME280;40965;52.368;9.712;2023-04-25T11:47:06;100494.66;;;9.97;47.78
55068;BME280;40965;52.368;9.712;2023-04-25T11:49:32;100493.94;;;9.82;49.67
55068;BME280;40965;52.368;9.712;2023-04-25T11:52:00;100484.41;;;9.76;50.29
55068;BME280;40965;52.368;9.712;2023-04-25T11:54:26;100494.84;;;9.76;49.91
55068;BME280;40965;52.368;9.712;2023-04-25T11:56:55;100492.97;;;9.92;50.45
55068;BME280;40965;52.368;9.712;2023-04-25T11:59:24;100479.91;;;9.91;49.65
55068;BME280;40965;52.368;9.712;2023-04-25T12:01:51;100487.41;;;10.26;48.47
55068;BME280;40965;52.368;9.712;2023-04-25T12:04:20;100475.03;;;10.44;47.33
55068;BME280;40965;52.368;9.712;2023-04-25T12:06:49;100489.06;;;10.34;46.89
55068;BME280;40965;52.368;9.712;2023-04-25T12:09:21;100483.72;;;10.48;46.78
55068;BME280;40965;52.368;9.712;2023-04-25T12:11:55;100484.50;;;11.24;46.26
55068;BME280;40965;52.368;9.712;2023-04-25T12:14:28;100490.56;;;12.34;44.06
55068;BME280;40965;52.368;9.712;2023-04-25T12:17:01;100486.88;;;14.36;39.48
55068;BME280;40965;52.368;9.712;2023-04-25T12:19:35;100486.97;;;16.57;33.68
55068;BME280;40965;52.368;9.712;2023-04-25T12:22:02;100472.31;;;18.47;30.11
55068;BME280;40965;52.368;9.712;2023-04-25T12:24:33;100473.75;;;19.67;28.61
55068;BME280;40965;52.368;9.712;2023-04-25T12:27:04;100478.25;;;20.53;26.90
55068;BME280;40965;52.368;9.712;2023-04-25T12:29:34;100462.38;;;21.01;26.22
55068;BME280;40965;52.368;9.712;2023-04-25T12:32:01;100476.28;;;21.38;26.11
55068;BME280;40965;52.368;9.712;2023-04-25T12:34:27;100486.31;;;21.49;26.64
55068;BME280;40965;52.368;9.712;2023-04-25T12:36:54;100490.81;;;19.98;27.83
55068;BME280;40965;52.368;9.712;2023-04-25T12:39:23;100492.63;;;17.41;30.69
55068;BME280;40965;52.368;9.712;2023-04-25T12:41:51;100510.72;;;15.52;34.04
55068;BME280;40965;52.368;9.712;2023-04-25T12:44:19;100519.34;;;14.02;36.67
55068;BME280;40965;52.368;9.712;2023-04-25T12:46:47;100519.59;;;13.16;38.49
55068;BME280;40965;52.368;9.712;2023-04-25T12:49:14;100528.31;;;12.74;39.01
55068;BME280;40965;52.368;9.712;2023-04-25T12:51:40;100521.91;;;12.42;39.88
55068;BME280;40965;52.368;9.712;2023-04-25T12:54:07;100524.50;;;11.94;39.76
55068;BME280;40965;52.368;9.712;2023-04-25T12:56:35;100521.69;;;11.51;40.55
55068;BME280;40965;52.368;9.712;2023-04-25T12:59:02;100526.53;;;11.15;40.50